»·PEaware :: N110KD KWHP-KTOA

N110KD :: KWHP-KTOA

FLIGHT INFORMATION

Flight Status: Arrived
Operator: Privately registered:
United States
More flights under this callsign
Pilot: Anonymous 39635 (39635)
Aircraft: Diamond DA-62
(DA62)
More flights by this aircraft type
Origin: KWHP Whiteman
United States
Destination: KTOA Zamperini
United States
More flights between these airports :: More routes between these airports
Route:
File this flight plan on PilotEdge
Remarks:
Altitude:
(Current/Filed)
5,500ft
Speed:
(Current/Filed)
0kts
Departed: 16-Oct-23 12:53 PM
Arrived: 16-Oct-23 01:28 PM
Distance/Time
Traveled:
27nm/0:35
Distance/Time
To Go:
Arrived

Flight Plot

Page will automatically refresh every two minutes.

Flight plan parsing failed; only flown route is shown


Map Options




Map Legend


Flown Route
Filed Route
Departure Airport
Arrival Airport
Navaid (VOR, NDB)
Fix

Horizontal Profiles

Position Reports

Time Latitude Longitude Heading Altitude Ground
Speed
16-Oct-23 12:39 34.262919 -118.413956 45 0ft 0kts
16-Oct-23 12:40 34.262919 -118.413956 45 0ft 0kts
16-Oct-23 12:41 34.262919 -118.413956 45 0ft 0kts
16-Oct-23 12:42 34.262919 -118.413956 45 0ft 0kts
16-Oct-23 12:43 34.262919 -118.413956 45 0ft 0kts
16-Oct-23 12:44 34.262919 -118.413956 45 0ft 0kts
16-Oct-23 12:45 34.262919 -118.413956 45 0ft 0kts
16-Oct-23 12:46 34.262919 -118.413956 45 0ft 0kts
16-Oct-23 12:47 34.262044 -118.415410 222 996ft 11kts
16-Oct-23 12:48 34.258528 -118.411980 141 986ft 18kts
16-Oct-23 12:49 34.255666 -118.408955 149 962ft 0kts
16-Oct-23 12:50 34.255666 -118.408955 149 962ft 0kts
16-Oct-23 12:51 34.255330 -118.408933 204 961ft 10kts
16-Oct-23 12:52 34.263697 -118.418185 317 1292ft 92kts
16-Oct-23 12:53 34.286012 -118.442773 316 2535ft 116kts
16-Oct-23 12:54 34.306209 -118.472620 281 3836ft 113kts
16-Oct-23 12:55 34.295207 -118.503431 189 5132ft 104kts
16-Oct-23 12:56 34.258713 -118.509757 185 5422ft 161kts
16-Oct-23 12:57 34.214639 -118.522506 201 5511ft 159kts
16-Oct-23 12:58 34.178511 -118.545395 188 5513ft 139kts
16-Oct-23 12:59 34.143365 -118.534373 157 5512ft 128kts
16-Oct-23 13:00 34.110726 -118.518521 157 5523ft 128kts
16-Oct-23 13:01 34.077258 -118.502184 157 5528ft 132kts
16-Oct-23 13:02 34.043145 -118.485550 157 5524ft 131kts
16-Oct-23 13:03 34.009208 -118.469013 157 5524ft 130kts
16-Oct-23 13:04 33.975305 -118.452599 157 5525ft 132kts
16-Oct-23 13:05 33.940920 -118.436172 157 5529ft 135kts
16-Oct-23 13:06 33.911647 -118.409674 134 5526ft 133kts
16-Oct-23 13:07 33.884903 -118.379161 136 5524ft 131kts
16-Oct-23 13:08 33.857648 -118.350193 138 5524ft 130kts
16-Oct-23 13:09 33.830735 -118.321165 138 5524ft 129kts
16-Oct-23 13:10 33.803931 -118.292200 138 5524ft 130kts
16-Oct-23 13:11 33.776954 -118.263067 138 5524ft 130kts
16-Oct-23 13:12 33.749886 -118.233858 138 5525ft 132kts
16-Oct-23 13:13 33.726496 -118.196847 101 5040ft 150kts
16-Oct-23 13:14 33.718105 -118.146890 101 4541ft 153kts
16-Oct-23 13:15 33.704230 -118.101283 130 4038ft 141kts
16-Oct-23 13:16 33.679974 -118.065299 129 3536ft 136kts
16-Oct-23 13:17 33.652729 -118.055829 241 3037ft 129kts
16-Oct-23 13:18 33.650769 -118.098517 273 2539ft 129kts
16-Oct-23 13:19 33.667931 -118.134893 307 2040ft 127kts
16-Oct-23 13:20 33.688018 -118.165064 305 1970ft 104kts
16-Oct-23 13:21 33.705242 -118.190649 306 1965ft 96kts
16-Oct-23 13:22 33.722781 -118.216248 307 1968ft 101kts
16-Oct-23 13:23 33.740469 -118.242792 303 1971ft 102kts
16-Oct-23 13:24 33.759587 -118.272517 306 1976ft 118kts
16-Oct-23 13:25 33.780385 -118.303791 304 1438ft 105kts
16-Oct-23 13:26 33.795910 -118.327448 306 347ft 81kts
16-Oct-23 13:27 33.804594 -118.340701 310 89ft 26kts
16-Oct-23 13:28 33.805946 -118.344018 290 93ft 0kts
16-Oct-23 13:29 33.805042 -118.345897 216 97ft 7kts
16-Oct-23 13:30 33.804838 -118.346082 220 99ft 0kts
16-Oct-23 13:31 33.804838 -118.346082 220 99ft 0kts

Navigation Log

Ident Type
Flight plan parsing failed, navigation log unavailable